Time;durP1;ratioP1;P1;durP2;ratioP2;P2;SDS_P1;SDS_P2;PMS_P1;PMS_P2;Temp;Humidity;BMP_temperature;BMP_pressure;BME280_temperature;BME280_humidity;BME280_pressure;Samples;Min_cycle;Max_cycle;Signal;HPM_P1;HPM_P2
2022/10/22 00:02:07;;;;;;;12.45;9.77;;;11.70;1.00;;;;;;5046197;28;20729;-82
2022/10/22 00:04:33;;;;;;;11.00;9.45;;;11.70;1.00;;;;;;5046367;28;20214;-78
2022/10/22 00:06:59;;;;;;;10.32;9.10;;;12.00;4.80;;;;;;5047457;28;20189;-78
2022/10/22 00:09:25;;;;;;;9.82;8.82;;;11.70;8.30;;;;;;5045581;28;20183;-77
2022/10/22 00:11:50;;;;;;;9.60;8.60;;;11.30;8.40;;;;;;5047011;28;20187;-76
2022/10/22 00:14:16;;;;;;;9.13;8.23;;;11.40;10.30;;;;;;5045445;28;20206;-77
2022/10/22 00:16:42;;;;;;;8.32;7.45;;;11.20;12.00;;;;;;5045911;28;20193;-76
2022/10/22 00:19:08;;;;;;;11.18;9.32;;;11.50;7.90;;;;;;5046824;28;20196;-77
2022/10/22 00:21:34;;;;;;;10.20;8.60;;;11.80;58.60;;;;;;5045927;28;20174;-76
2022/10/22 00:24:00;;;;;;;11.18;8.77;;;11.40;64.80;;;;;;5046634;28;20266;-80
2022/10/22 00:26:26;;;;;;;9.82;7.80;;;11.50;66.70;;;;;;5045295;28;20662;-76
2022/10/22 00:28:52;;;;;;;10.10;9.07;;;11.80;68.00;;;;;;5046876;28;20208;-76
2022/10/22 00:31:18;;;;;;;10.98;8.65;;;11.40;99.90;;;;;;5046503;28;20255;-78
2022/10/22 00:33:46;;;;;;;9.50;8.50;;;11.30;99.90;;;;;;5046509;28;20174;-77
2022/10/22 00:36:12;;;;;;;12.18;9.45;;;11.30;99.90;;;;;;5046094;28;20225;-79
2022/10/22 00:38:38;;;;;;;9.38;8.48;;;11.20;99.90;;;;;;5045140;28;20205;-76
2022/10/22 00:41:04;;;;;;;9.43;8.13;;;11.60;99.90;;;;;;5046229;28;20247;-77
2022/10/22 00:43:30;;;;;;;8.77;7.97;;;11.30;99.90;;;;;;5045211;28;20839;-78
2022/10/22 00:45:55;;;;;;;9.48;8.57;;;11.30;99.90;;;;;;5045694;28;20229;-77
2022/10/22 00:48:25;;;;;;;9.50;8.20;;;11.50;99.90;;;;;;5045095;28;20266;-77
2022/10/22 00:50:56;;;;;;;11.43;9.45;;;11.30;99.90;;;;;;5045706;28;20182;-76
2022/10/22 00:53:27;;;;;;;10.18;9.18;;;11.30;99.90;;;;;;5043817;28;20217;-76
2022/10/22 00:55:54;;;;;;;12.50;9.80;;;11.60;99.90;;;;;;5046133;28;21125;-77
2022/10/22 00:58:24;;;;;;;12.45;9.45;;;11.60;99.90;;;;;;5046311;28;20186;-76
2022/10/22 01:00:49;;;;;;;9.18;8.27;;;11.80;99.90;;;;;;5046131;28;20181;-77
2022/10/22 01:03:15;;;;;;;11.55;9.20;;;11.10;99.90;;;;;;5045506;28;20206;-76
2022/10/22 01:05:47;;;;;;;9.98;8.98;;;11.30;99.90;;;;;;5045841;28;20248;-76
2022/10/22 01:08:45;;;;;;;9.57;8.68;;;11.30;99.90;;;;;;5045925;28;20170;-78
2022/10/22 01:11:37;;;;;;;10.88;9.52;;;11.30;99.90;;;;;;5033497;28;20194;-82
2022/10/22 01:14:16;;;;;;;10.45;8.90;;;11.30;99.90;;;;;;5045260;28;20202;-77
2022/10/22 01:16:51;;;;;;;11.30;9.48;;;11.30;99.90;;;;;;5045364;28;20174;-79
2022/10/22 01:19:55;;;;;;;10.85;9.55;;;11.20;99.90;;;;;;5045735;28;20181;-80
2022/10/22 01:22:39;;;;;;;10.88;9.07;;;11.30;99.90;;;;;;4936094;29;20200;-77
2022/10/22 01:25:29;;;;;;;9.90;8.90;;;11.30;99.90;;;;;;4935950;29;20236;-81
2022/10/22 01:28:06;;;;;;;10.45;9.20;;;11.20;99.90;;;;;;5017420;28;20209;-81
2022/10/22 01:30:32;;;;;;;11.02;8.80;;;11.30;99.90;;;;;;5045820;28;20663;-79
2022/10/22 01:33:02;;;;;;;8.75;7.90;;;11.10;99.90;;;;;;5043262;28;20277;-77
2022/10/22 01:35:35;;;;;;;8.52;7.72;;;11.10;99.90;;;;;;5044144;28;20229;-81
2022/10/22 01:38:05;;;;;;;9.18;8.20;;;11.10;99.90;;;;;;5045096;28;20200;-76
2022/10/22 01:40:31;;;;;;;8.27;7.47;;;11.20;99.90;;;;;;5047358;28;20704;-80
2022/10/22 01:43:06;;;;;;;7.88;7.18;;;11.10;99.90;;;;;;5046349;28;20182;-76
2022/10/22 01:45:35;;;;;;;9.93;8.93;;;12.00;99.90;;;;;;5043322;28;20202;-77
2022/10/22 01:48:18;;;;;;;9.38;7.95;;;11.10;99.90;;;;;;5045143;28;20190;-76
2022/10/22 01:51:04;;;;;;;10.07;7.97;;;11.00;99.90;;;;;;5045216;28;20182;-78
2022/10/22 01:53:43;;;;;;;7.60;6.88;;;10.90;99.90;;;;;;5043279;28;20804;-78
2022/10/22 01:56:15;;;;;;;12.05;8.85;;;10.90;99.90;;;;;;5045291;28;20564;-77
2022/10/22 01:59:07;;;;;;;10.95;9.40;;;10.90;99.90;;;;;;5045213;28;20188;-76
2022/10/22 02:01:38;;;;;;;10.40;9.27;;;11.00;99.90;;;;;;5002114;28;20189;-79
2022/10/22 02:04:09;;;;;;;12.30;9.75;;;11.00;99.90;;;;;;5044842;28;20218;-76
2022/10/22 02:06:37;;;;;;;11.93;9.45;;;12.10;99.90;;;;;;5051588;28;20214;-77
2022/10/22 02:09:03;;;;;;;11.48;9.63;;;11.00;99.90;;;;;;5043756;28;20175;-76
2022/10/22 02:11:29;;;;;;;11.40;9.55;;;11.00;99.90;;;;;;5045723;28;20175;-81
2022/10/22 02:13:59;;;;;;;12.77;10.27;;;11.00;99.90;;;;;;5045166;28;20302;-77
2022/10/22 02:16:32;;;;;;;11.23;9.73;;;11.00;99.90;;;;;;5044850;28;20617;-76
2022/10/22 02:19:02;;;;;;;15.23;10.07;;;10.90;99.90;;;;;;5043790;28;20194;-78
2022/10/22 02:21:28;;;;;;;10.48;9.48;;;11.20;99.90;;;;;;5044876;28;21072;-79
2022/10/22 02:23:54;;;;;;;13.32;11.38;;;12.20;99.90;;;;;;5044196;28;20210;-79
2022/10/22 02:26:22;;;;;;;11.15;9.82;;;11.30;99.90;;;;;;5044726;28;20531;-82
2022/10/22 02:28:58;;;;;;;9.95;8.95;;;11.30;99.90;;;;;;5048957;28;20179;-78
2022/10/22 02:31:29;;;;;;;13.45;10.75;;;11.40;99.90;;;;;;5048479;28;20223;-79
2022/10/22 02:33:58;;;;;;;12.02;9.50;;;11.00;99.90;;;;;;5046785;28;20206;-77
2022/10/22 02:36:24;;;;;;;10.60;9.25;;;11.20;99.90;;;;;;5046585;28;20187;-76
2022/10/22 02:38:51;;;;;;;9.73;8.82;;;12.30;99.90;;;;;;5048804;28;20194;-77
2022/10/22 02:41:18;;;;;;;11.82;10.35;;;11.30;99.90;;;;;;5048325;28;20269;-76
2022/10/22 02:43:50;;;;;;;11.48;9.23;;;11.10;99.90;;;;;;5048667;28;20232;-78
2022/10/22 02:46:16;;;;;;;10.30;9.30;;;11.10;99.90;;;;;;5048585;28;20557;-76
2022/10/22 02:48:41;;;;;;;11.13;9.50;;;11.10;99.90;;;;;;5048798;28;20194;-81
2022/10/22 02:51:07;;;;;;;10.40;9.40;;;11.40;99.90;;;;;;5049064;28;20206;-77
2022/10/22 02:53:32;;;;;;;9.82;8.88;;;12.30;99.90;;;;;;5048430;28;20182;-79
2022/10/22 02:55:59;;;;;;;9.18;8.18;;;11.10;99.90;;;;;;5048442;28;20602;-76
2022/10/22 02:58:24;;;;;;;9.10;8.20;;;11.00;99.90;;;;;;5048410;28;20274;-76
2022/10/22 03:00:50;;;;;;;10.23;8.55;;;10.90;99.90;;;;;;5048422;28;20266;-79
2022/10/22 03:03:16;;;;;;;9.13;7.95;;;11.00;99.90;;;;;;5046837;28;20214;-76
2022/10/22 03:05:41;;;;;;;9.43;7.47;;;11.10;99.90;;;;;;5048054;28;20277;-76
2022/10/22 03:08:07;;;;;;;9.77;8.73;;;11.00;99.90;;;;;;5047600;28;20324;-77
2022/10/22 03:10:32;;;;;;;9.38;8.50;;;10.90;99.90;;;;;;5048235;28;20179;-80
2022/10/22 03:12:58;;;;;;;12.95;9.27;;;11.00;99.90;;;;;;5048141;28;20186;-76
2022/10/22 03:15:24;;;;;;;8.95;8.05;;;11.00;99.90;;;;;;5047269;28;20202;-77
2022/10/22 03:17:49;;;;;;;8.63;7.82;;;11.00;99.90;;;;;;5048852;28;20220;-76
2022/10/22 03:20:15;;;;;;;10.52;8.98;;;11.00;99.90;;;;;;5046422;28;20182;-80
2022/10/22 03:22:42;;;;;;;9.10;8.23;;;11.00;99.90;;;;;;5046885;28;20202;-77
2022/10/22 03:25:12;;;;;;;10.27;8.60;;;11.00;99.90;;;;;;5047026;28;20214;-78
2022/10/22 03:27:39;;;;;;;11.02;8.63;;;10.90;99.90;;;;;;5048011;28;20181;-76
2022/10/22 03:30:05;;;;;;;9.75;8.80;;;11.00;99.90;;;;;;5048355;28;20273;-81
2022/10/22 03:32:31;;;;;;;9.65;8.65;;;11.00;99.90;;;;;;5047794;28;20240;-76
2022/10/22 03:34:56;;;;;;;9.68;8.40;;;10.90;99.90;;;;;;5046507;28;20206;-79
2022/10/22 03:37:24;;;;;;;9.40;8.45;;;11.00;99.90;;;;;;5049285;28;20265;-76
2022/10/22 03:39:50;;;;;;;8.93;8.02;;;11.20;99.90;;;;;;5047428;28;20711;-77
2022/10/22 03:42:16;;;;;;;8.88;7.97;;;11.00;99.90;;;;;;5047406;28;20186;-78
2022/10/22 03:44:42;;;;;;;7.90;7.20;;;11.00;99.90;;;;;;5047911;28;20259;-76
2022/10/22 03:47:09;;;;;;;10.03;8.07;;;10.80;99.90;;;;;;5047537;28;20634;-77
2022/10/22 03:49:35;;;;;;;8.77;7.82;;;10.80;99.90;;;;;;5047235;28;20252;-77
2022/10/22 03:52:06;;;;;;;10.82;8.35;;;10.80;99.90;;;;;;5046393;28;20174;-80
2022/10/22 03:54:31;;;;;;;8.75;7.85;;;10.80;99.90;;;;;;5047625;28;20281;-78
2022/10/22 03:56:57;;;;;;;9.70;8.47;;;10.80;99.90;;;;;;5047307;28;20269;-79
2022/10/22 03:59:22;;;;;;;8.38;7.50;;;10.80;99.90;;;;;;5046936;28;20186;-76
2022/10/22 04:01:48;;;;;;;12.68;8.90;;;11.30;99.90;;;;;;5045925;28;20701;-77
2022/10/22 04:04:13;;;;;;;9.20;8.25;;;11.10;99.90;;;;;;5046031;28;20217;-77
2022/10/22 04:06:39;;;;;;;9.70;8.70;;;10.70;99.90;;;;;;5046683;28;20178;-82
2022/10/22 04:09:05;;;;;;;9.50;8.38;;;10.60;99.90;;;;;;5047487;28;20232;-76
2022/10/22 04:11:30;;;;;;;10.85;8.98;;;11.70;99.90;;;;;;5046427;28;20181;-77
2022/10/22 04:13:56;;;;;;;10.48;9.40;;;10.80;99.90;;;;;;5045656;28;20280;-78
2022/10/22 04:16:22;;;;;;;10.68;9.15;;;10.80;99.90;;;;;;5046229;28;20190;-76
2022/10/22 04:18:49;;;;;;;12.27;9.83;;;10.70;99.90;;;;;;5047369;28;20772;-76
2022/10/22 04:21:17;;;;;;;9.90;8.90;;;10.90;99.90;;;;;;5045621;28;20193;-76
2022/10/22 04:23:45;;;;;;;9.68;8.65;;;10.90;99.90;;;;;;5046285;28;20704;-77
2022/10/22 04:26:10;;;;;;;10.50;8.80;;;11.40;99.90;;;;;;5046058;28;20185;-77
2022/10/22 04:28:36;;;;;;;10.27;9.15;;;11.20;99.90;;;;;;5047162;28;20182;-76
2022/10/22 04:31:15;;;;;;;11.68;9.68;;;10.60;99.90;;;;;;5046466;28;20178;-81
2022/10/22 04:33:41;;;;;;;12.90;9.60;;;10.60;99.90;;;;;;5046353;28;20185;-77
2022/10/22 04:36:10;;;;;;;11.53;10.27;;;10.90;99.90;;;;;;5045159;28;20183;-79
2022/10/22 04:38:36;;;;;;;10.67;9.57;;;10.60;99.90;;;;;;5047060;28;20181;-77
2022/10/22 04:41:10;;;;;;;10.50;9.07;;;11.40;99.90;;;;;;5048704;28;20187;-77
2022/10/22 04:43:36;;;;;;;10.68;9.57;;;10.50;99.90;;;;;;5045778;28;20205;-76
2022/10/22 04:46:01;;;;;;;11.55;9.95;;;11.20;99.90;;;;;;5046691;28;20190;-76
2022/10/22 04:48:27;;;;;;;10.80;9.02;;;10.50;99.90;;;;;;5046284;28;20209;-77
2022/10/22 04:50:52;;;;;;;12.93;9.53;;;11.60;99.90;;;;;;5044730;28;20265;-80
2022/10/22 04:53:18;;;;;;;10.70;9.43;;;10.60;99.90;;;;;;5044873;28;20183;-77
2022/10/22 04:55:43;;;;;;;9.97;8.90;;;10.70;99.90;;;;;;5044975;28;20232;-79
2022/10/22 04:58:09;;;;;;;11.40;9.53;;;11.20;99.90;;;;;;5045673;28;20182;-77
2022/10/22 05:00:34;;;;;;;11.68;9.70;;;10.70;99.90;;;;;;5046241;28;20189;-77
2022/10/22 05:03:00;;;;;;;12.37;9.57;;;10.80;99.90;;;;;;5044630;28;20276;-81
2022/10/22 05:05:26;;;;;;;11.07;9.90;;;10.70;99.90;;;;;;5044535;28;20213;-79
2022/10/22 05:07:51;;;;;;;11.70;10.47;;;10.60;99.90;;;;;;5044609;28;20171;-77
2022/10/22 05:10:17;;;;;;;11.63;10.43;;;10.70;99.90;;;;;;5045620;28;20182;-79
2022/10/22 05:12:42;;;;;;;10.63;9.53;;;10.70;99.90;;;;;;5045913;28;20178;-79
2022/10/22 05:15:08;;;;;;;12.80;10.02;;;11.10;99.90;;;;;;5046216;28;20202;-77
2022/10/22 05:17:37;;;;;;;11.07;9.97;;;10.80;99.90;;;;;;5045835;28;20556;-77
2022/10/22 05:20:04;;;;;;;12.70;10.47;;;10.70;99.90;;;;;;5047175;28;20179;-77
2022/10/22 05:22:30;;;;;;;12.43;9.70;;;10.70;99.90;;;;;;5046024;28;20179;-76
2022/10/22 05:24:55;;;;;;;9.77;8.77;;;10.70;99.90;;;;;;5046358;28;20210;-76
2022/10/22 05:27:21;;;;;;;10.00;8.95;;;10.60;99.90;;;;;;5046434;28;20209;-79
2022/10/22 05:29:47;;;;;;;9.77;8.77;;;10.70;99.90;;;;;;5047265;28;20209;-80
2022/10/22 05:32:13;;;;;;;9.35;8.48;;;10.60;99.90;;;;;;5045549;28;20654;-79
2022/10/22 05:34:38;;;;;;;10.27;9.13;;;10.60;99.90;;;;;;5045590;28;20202;-76
2022/10/22 05:37:04;;;;;;;10.43;8.48;;;10.60;99.90;;;;;;5046048;28;20200;-80
2022/10/22 05:39:29;;;;;;;9.60;8.70;;;10.60;99.90;;;;;;5045753;28;20202;-77
2022/10/22 05:41:55;;;;;;;10.05;9.05;;;10.60;99.90;;;;;;5045121;28;20269;-79
2022/10/22 05:44:21;;;;;;;10.05;9.02;;;10.60;99.90;;;;;;5043433;28;20641;-77
2022/10/22 05:46:46;;;;;;;11.65;9.30;;;10.80;99.90;;;;;;5043827;28;20316;-76
2022/10/22 05:49:14;;;;;;;11.48;9.82;;;10.70;99.90;;;;;;5044845;28;20285;-79
2022/10/22 05:51:39;;;;;;;11.75;9.90;;;10.60;99.90;;;;;;5045120;28;20253;-78
2022/10/22 05:54:07;;;;;;;12.82;10.48;;;10.70;99.90;;;;;;5045512;28;20289;-77
2022/10/22 05:56:34;;;;;;;12.13;10.43;;;10.90;99.90;;;;;;5043873;28;20187;-77
2022/10/22 05:59:00;;;;;;;14.13;10.45;;;10.70;99.90;;;;;;5041971;28;20182;-77
2022/10/22 06:01:32;;;;;;;11.20;9.30;;;10.90;99.90;;;;;;5043628;28;20256;-77
2022/10/22 06:04:00;;;;;;;12.45;9.95;;;10.60;99.90;;;;;;5043505;28;20214;-77
2022/10/22 06:06:33;;;;;;;11.30;9.68;;;10.60;99.90;;;;;;5044785;28;20163;-78
2022/10/22 06:09:20;;;;;;;11.97;10.47;;;10.60;99.90;;;;;;5044149;28;20297;-81
2022/10/22 06:11:46;;;;;;;11.57;10.37;;;10.70;99.90;;;;;;5044375;28;20641;-79
2022/10/22 06:14:12;;;;;;;12.43;9.80;;;10.60;99.90;;;;;;5044675;28;20198;-78
2022/10/22 06:16:38;;;;;;;13.40;10.17;;;10.70;99.90;;;;;;5043637;28;20193;-81
2022/10/22 06:19:04;;;;;;;10.87;9.77;;;11.40;99.90;;;;;;5041367;28;20634;-78
2022/10/22 06:21:30;;;;;;;14.23;10.70;;;10.70;99.90;;;;;;5040245;28;20182;-82
2022/10/22 06:23:57;;;;;;;14.27;10.63;;;10.70;99.90;;;;;;5040674;28;20210;-77
2022/10/22 06:26:23;;;;;;;11.27;10.13;;;10.70;99.90;;;;;;5039392;28;20185;-78
2022/10/22 06:28:49;;;;;;;12.20;10.57;;;10.80;99.90;;;;;;5042320;28;20546;-77
2022/10/22 06:31:14;;;;;;;12.00;10.60;;;10.70;99.90;;;;;;5036088;28;20666;-78
2022/10/22 06:33:43;;;;;;;14.57;10.82;;;11.00;99.90;;;;;;5040669;28;20182;-79
2022/10/22 06:36:14;;;;;;;12.43;10.07;;;10.80;99.90;;;;;;5039534;28;20186;-77
2022/10/22 06:38:40;;;;;;;13.80;10.63;;;10.80;99.90;;;;;;5041088;28;20671;-81
2022/10/22 06:41:10;;;;;;;13.43;10.45;;;10.90;99.90;;;;;;5039127;28;20332;-78
2022/10/22 06:43:35;;;;;;;11.07;9.97;;;11.00;99.90;;;;;;5039046;28;20244;-77
2022/10/22 06:46:03;;;;;;;11.30;9.30;;;11.30;99.90;;;;;;5044561;28;20650;-77
2022/10/22 06:48:29;;;;;;;10.48;9.38;;;11.00;99.90;;;;;;5043957;28;20198;-77
2022/10/22 06:51:02;;;;;;;11.32;9.43;;;12.10;99.90;;;;;;5044863;28;20565;-77
2022/10/22 06:53:28;;;;;;;9.57;8.57;;;11.10;99.90;;;;;;5044887;28;20798;-78
2022/10/22 06:55:54;;;;;;;9.90;8.90;;;11.10;99.90;;;;;;5043772;28;20373;-80
2022/10/22 06:58:20;;;;;;;11.05;9.00;;;11.10;99.90;;;;;;5044193;28;20295;-77
2022/10/22 07:00:45;;;;;;;10.25;8.82;;;11.10;99.90;;;;;;5044609;28;20311;-77
2022/10/22 07:03:12;;;;;;;9.45;8.55;;;11.80;99.90;;;;;;5038957;28;20194;-78
2022/10/22 07:05:38;;;;;;;9.15;8.25;;;11.40;99.90;;;;;;5040601;28;20202;-82
2022/10/22 07:08:04;;;;;;;11.15;8.63;;;11.60;99.90;;;;;;5045760;28;20182;-78
2022/10/22 07:10:30;;;;;;;9.55;8.15;;;11.30;99.90;;;;;;5050684;28;20182;-78
2022/10/22 07:12:56;;;;;;;9.85;8.77;;;11.30;99.90;;;;;;5048464;28;20174;-80
2022/10/22 07:15:22;;;;;;;8.73;7.53;;;11.30;99.90;;;;;;5048906;28;20281;-79
2022/10/22 07:17:47;;;;;;;9.25;8.25;;;11.30;99.90;;;;;;5047839;28;20930;-78
2022/10/22 07:20:13;;;;;;;8.85;7.95;;;11.40;99.90;;;;;;5049386;28;20186;-79
2022/10/22 07:22:39;;;;;;;9.40;8.48;;;11.40;99.90;;;;;;5046746;28;20304;-77
2022/10/22 07:25:04;;;;;;;9.45;8.45;;;11.50;99.90;;;;;;5048024;28;20226;-80
2022/10/22 07:27:30;;;;;;;10.57;9.57;;;11.60;99.90;;;;;;5043864;28;20192;-80
2022/10/22 07:29:59;;;;;;;10.32;8.48;;;11.60;99.90;;;;;;5048863;28;20179;-81
2022/10/22 07:32:25;;;;;;;10.02;9.13;;;11.60;99.90;;;;;;5045324;28;20624;-82
2022/10/22 07:34:50;;;;;;;9.70;8.75;;;11.80;99.90;;;;;;5047311;28;20206;-81
2022/10/22 07:37:20;;;;;;;9.55;8.57;;;12.10;99.90;;;;;;5045826;28;20191;-82
2022/10/22 07:39:46;;;;;;;9.52;8.55;;;12.10;99.90;;;;;;5045863;28;20198;-82
2022/10/22 07:42:12;;;;;;;8.90;8.10;;;12.10;99.90;;;;;;5046599;28;20186;-81
2022/10/22 07:44:37;;;;;;;9.73;8.25;;;12.20;99.90;;;;;;5044881;28;20214;-76
2022/10/22 07:47:03;;;;;;;9.82;8.05;;;12.20;99.90;;;;;;5040599;28;20187;-76
2022/10/22 07:49:29;;;;;;;8.13;7.32;;;12.40;99.90;;;;;;5046764;28;20237;-82
2022/10/22 07:51:55;;;;;;;8.70;7.80;;;12.40;99.90;;;;;;5047600;28;20646;-83
2022/10/22 07:54:21;;;;;;;8.38;7.57;;;12.50;99.90;;;;;;5045072;28;20209;-83
2022/10/22 07:56:47;;;;;;;8.10;7.35;;;12.80;99.90;;;;;;5047352;28;20195;-83
2022/10/22 07:59:13;;;;;;;9.15;7.60;;;12.60;99.90;;;;;;5048063;28;20190;-83
2022/10/22 08:01:38;;;;;;;8.32;7.53;;;12.60;99.90;;;;;;5047513;28;20178;-82
2022/10/22 08:04:07;;;;;;;7.63;6.93;;;12.60;99.90;;;;;;5049443;28;20225;-82
2022/10/22 08:06:33;;;;;;;8.15;7.13;;;12.80;99.90;;;;;;5049857;28;20206;-82
2022/10/22 08:11:51;;;;;;;7.50;6.72;;;12.90;99.90;;;;;;5052099;28;20198;-84
2022/10/22 08:14:16;;;;;;;7.32;6.72;;;13.00;99.90;;;;;;5054557;28;20214;-81
2022/10/22 08:16:42;;;;;;;7.70;7.00;;;13.10;99.90;;;;;;5041253;28;20622;-83
2022/10/22 08:19:08;;;;;;;9.70;8.75;;;13.30;99.90;;;;;;5046063;28;20197;-82
2022/10/22 08:21:33;;;;;;;8.65;7.75;;;13.40;99.90;;;;;;5047321;28;20285;-82
2022/10/22 08:23:59;;;;;;;9.07;8.20;;;13.20;99.90;;;;;;5045764;28;20253;-81
2022/10/22 08:26:24;;;;;;;8.75;7.68;;;13.10;92.00;;;;;;5044442;28;20186;-84
2022/10/22 08:28:50;;;;;;;8.30;6.97;;;13.20;84.10;;;;;;5044984;28;20669;-81
2022/10/22 08:31:16;;;;;;;9.65;6.90;;;13.10;46.50;;;;;;5045411;28;20188;-84
2022/10/22 08:33:42;;;;;;;11.35;7.78;;;13.00;18.50;;;;;;5045751;28;20178;-81
2022/10/22 08:36:08;;;;;;;9.15;8.25;;;13.10;26.00;;;;;;5045651;28;20190;-81
2022/10/22 08:38:34;;;;;;;10.00;8.73;;;13.30;36.70;;;;;;5045746;28;21289;-83
2022/10/22 08:41:18;;;;;;;9.88;7.40;;;13.40;60.00;;;;;;5044708;28;20182;-83
2022/10/22 08:44:07;;;;;;;8.15;7.00;;;13.50;3.40;;;;;;5042040;28;20216;-82
2022/10/22 08:46:36;;;;;;;12.25;8.77;;;13.80;1.00;;;;;;5041426;28;20265;-81
2022/10/22 08:49:07;;;;;;;13.80;10.57;;;13.90;1.00;;;;;;5041728;28;20194;-83
2022/10/22 08:51:39;;;;;;;9.50;7.95;;;13.90;41.80;;;;;;5043010;28;20183;-81
2022/10/22 08:54:16;;;;;;;9.07;8.18;;;13.90;1.00;;;;;;5044741;28;20263;-82
2022/10/22 08:56:44;;;;;;;8.25;7.00;;;14.10;1.00;;;;;;5046213;28;21005;-81
2022/10/22 08:59:12;;;;;;;6.60;5.63;;;14.20;1.00;;;;;;5041716;28;20174;-81
2022/10/22 09:01:44;;;;;;;7.53;5.65;;;14.30;99.90;;;;;;5043772;28;20174;-81
2022/10/22 09:04:24;;;;;;;4.90;4.50;;;14.40;1.00;;;;;;5042610;28;20220;-81
2022/10/22 09:06:52;;;;;;;10.65;4.75;;;14.50;1.00;;;;;;5043263;28;20171;-81
2022/10/22 09:09:19;;;;;;;4.30;3.78;;;14.60;44.90;;;;;;5042537;28;20182;-83
2022/10/22 09:11:51;;;;;;;4.18;3.72;;;14.70;1.00;;;;;;5042568;28;20182;-82
2022/10/22 09:14:23;;;;;;;7.43;3.97;;;14.80;1.00;;;;;;5044362;28;20205;-82
2022/10/22 09:17:10;;;;;;;3.88;3.47;;;14.90;1.00;;;;;;5044746;28;20677;-81
2022/10/22 09:19:54;;;;;;;3.95;3.65;;;15.00;1.00;;;;;;5043917;28;20178;-81
2022/10/22 09:22:29;;;;;;;5.07;3.25;;;15.20;1.00;;;;;;5043706;28;20235;-82
2022/10/22 09:25:07;;;;;;;6.40;3.13;;;15.30;1.00;;;;;;5039641;28;20217;-85
2022/10/22 09:27:33;;;;;;;7.32;3.35;;;15.40;1.00;;;;;;5039856;28;20208;-83
2022/10/22 09:30:00;;;;;;;5.40;3.20;;;15.50;99.90;;;;;;5038258;28;20187;-80
2022/10/22 09:32:26;;;;;;;5.05;2.97;;;15.50;99.90;;;;;;5044732;28;20833;-83
2022/10/22 09:34:55;;;;;;;7.70;3.20;;;15.60;99.90;;;;;;5045410;28;20234;-83
2022/10/22 09:37:26;;;;;;;5.70;2.60;;;15.60;99.90;;;;;;5041528;28;20194;-81
2022/10/22 09:39:51;;;;;;;4.30;2.50;;;15.70;99.90;;;;;;5044747;28;20182;-82
2022/10/22 09:42:19;;;;;;;5.10;2.88;;;15.70;99.90;;;;;;5043795;28;20186;-82
2022/10/22 09:44:58;;;;;;;4.05;2.40;;;16.00;99.90;;;;;;5042666;28;20237;-82
2022/10/22 09:47:37;;;;;;;3.70;2.53;;;16.20;99.90;;;;;;5043132;28;20588;-82
2022/10/22 09:50:21;;;;;;;7.97;2.78;;;16.20;99.90;;;;;;5043959;28;20197;-81
2022/10/22 09:53:03;;;;;;;4.43;2.50;;;16.20;99.90;;;;;;5042577;28;20227;-81
2022/10/22 09:55:29;;;;;;;4.35;2.20;;;16.50;99.90;;;;;;5044752;28;20685;-86
2022/10/22 09:57:57;;;;;;;2.83;2.40;;;16.50;99.90;;;;;;5045986;28;20196;-82
2022/10/22 10:00:23;;;;;;;2.88;2.00;;;16.60;99.90;;;;;;5042075;28;20186;-82
2022/10/22 10:02:55;;;;;;;5.03;2.45;;;16.80;99.90;;;;;;5041620;28;20198;-84
2022/10/22 10:05:35;;;;;;;4.70;2.60;;;16.80;99.90;;;;;;5040029;28;20229;-81
2022/10/22 10:08:10;;;;;;;3.53;2.00;;;16.70;98.80;;;;;;5041671;28;20174;-83
2022/10/22 10:11:04;;;;;;;7.35;2.65;;;16.70;92.80;;;;;;5040180;28;20174;-86
2022/10/22 10:13:52;;;;;;;4.72;4.13;;;16.70;92.70;;;;;;5039621;28;20179;-83
2022/10/22 10:16:41;;;;;;;3.22;2.38;;;16.60;91.70;;;;;;5042663;28;20180;-82
2022/10/22 10:19:34;;;;;;;2.78;2.00;;;16.70;94.50;;;;;;5042732;28;20184;-83
2022/10/22 10:22:23;;;;;;;3.28;1.92;;;16.70;69.00;;;;;;5042534;28;20321;-83
2022/10/22 10:25:16;;;;;;;4.82;1.92;;;16.70;75.10;;;;;;5036409;28;20351;-83
2022/10/22 10:28:02;;;;;;;2.92;1.90;;;16.90;59.00;;;;;;5044424;28;20245;-84
2022/10/22 10:30:31;;;;;;;3.30;1.90;;;16.90;53.60;;;;;;5039480;28;20948;-83
2022/10/22 10:33:05;;;;;;;5.38;2.00;;;16.80;39.80;;;;;;5040366;28;20232;-84
2022/10/22 10:35:58;;;;;;;4.40;2.22;;;16.80;29.00;;;;;;5043437;28;20207;-84
2022/10/22 10:38:36;;;;;;;5.32;2.28;;;16.90;40.00;;;;;;5040574;28;20853;-85
2022/10/22 10:41:18;;;;;;;4.13;2.00;;;17.10;23.90;;;;;;5041057;28;20189;-81
2022/10/22 10:44:14;;;;;;;3.33;1.85;;;17.00;7.80;;;;;;5042031;28;20202;-80
2022/10/22 10:47:07;;;;;;;4.97;2.72;;;17.10;12.90;;;;;;5043440;28;20657;-81
2022/10/22 10:49:35;;;;;;;5.38;2.22;;;17.30;10.60;;;;;;5046462;28;20513;-82
2022/10/22 10:52:09;;;;;;;4.40;2.20;;;17.30;1.10;;;;;;5045907;28;20611;-82
2022/10/22 10:55:19;;;;;;;3.22;2.15;;;17.30;5.10;;;;;;5047309;28;20215;-83
2022/10/22 10:58:04;;;;;;;4.35;2.50;;;17.40;7.90;;;;;;5021011;28;20532;-82
2022/10/22 11:00:54;;;;;;;5.57;3.05;;;17.50;19.70;;;;;;5045624;28;20187;-80
2022/10/22 11:03:44;;;;;;;6.72;3.22;;;17.60;40.60;;;;;;5044657;28;20198;-80
2022/10/22 11:06:19;;;;;;;3.83;2.70;;;17.60;4.70;;;;;;5042074;28;20269;-81
2022/10/22 11:08:58;;;;;;;5.85;2.95;;;17.50;1.00;;;;;;5043526;28;21254;-80
2022/10/22 11:11:35;;;;;;;5.72;3.13;;;17.40;1.00;;;;;;5043236;28;20220;-83
2022/10/22 11:14:00;;;;;;;5.13;2.45;;;17.40;1.00;;;;;;5043633;28;20205;-80
2022/10/22 11:16:36;;;;;;;4.53;2.80;;;17.20;1.00;;;;;;5043406;28;20507;-80
2022/10/22 11:19:29;;;;;;;3.72;2.50;;;17.20;1.00;;;;;;5042359;28;20182;-81
2022/10/22 11:22:04;;;;;;;4.30;2.80;;;17.30;1.00;;;;;;5044007;28;20189;-79
2022/10/22 11:24:49;;;;;;;4.22;2.75;;;17.30;1.00;;;;;;5045471;28;20213;-81
2022/10/22 11:27:37;;;;;;;4.60;2.65;;;17.20;1.00;;;;;;5047187;28;20182;-80
2022/10/22 11:30:19;;;;;;;6.15;2.85;;;17.20;1.00;;;;;;5046048;28;20198;-79
2022/10/22 11:32:57;;;;;;;6.75;4.05;;;17.20;1.00;;;;;;5045507;28;20217;-79
2022/10/22 11:35:43;;;;;;;4.75;3.20;;;17.40;1.00;;;;;;5045693;28;20352;-78
2022/10/22 11:38:14;;;;;;;3.92;2.35;;;17.40;1.00;;;;;;5044834;28;20186;-78
2022/10/22 11:40:55;;;;;;;4.15;2.42;;;17.40;1.00;;;;;;5044525;28;20189;-79
2022/10/22 11:43:31;;;;;;;4.82;2.72;;;17.40;1.00;;;;;;5044829;28;20228;-79
2022/10/22 11:46:02;;;;;;;4.93;3.03;;;17.40;1.00;;;;;;5045060;28;20681;-79
2022/10/22 11:48:35;;;;;;;4.25;2.90;;;17.40;1.00;;;;;;5044578;28;20202;-79
2022/10/22 11:51:01;;;;;;;9.48;5.07;;;17.40;1.00;;;;;;5045688;28;20320;-77
2022/10/22 11:53:36;;;;;;;7.65;3.72;;;17.50;1.00;;;;;;5042876;28;20266;-77
2022/10/22 11:56:11;;;;;;;10.00;4.57;;;17.50;1.00;;;;;;5045239;28;20205;-77
2022/10/22 11:58:41;;;;;;;7.10;4.70;;;17.50;1.00;;;;;;5044901;28;20204;-76
2022/10/22 12:01:07;;;;;;;7.00;3.92;;;17.40;1.00;;;;;;5044663;28;20178;-77
2022/10/22 12:03:33;;;;;;;9.23;4.47;;;17.30;1.00;;;;;;5043966;28;20251;-79
2022/10/22 12:06:11;;;;;;;5.47;3.65;;;17.40;1.00;;;;;;5046830;28;20269;-77
2022/10/22 12:08:42;;;;;;;4.88;3.33;;;17.40;1.00;;;;;;5047017;28;20170;-78
2022/10/22 12:11:19;;;;;;;7.00;4.35;;;17.10;1.00;;;;;;5046708;28;20216;-79
2022/10/22 12:13:57;;;;;;;5.15;3.83;;;17.10;1.00;;;;;;5044080;28;20228;-78
2022/10/22 12:16:28;;;;;;;7.32;4.20;;;17.20;1.00;;;;;;5043808;28;20181;-77
2022/10/22 12:19:05;;;;;;;4.78;3.10;;;17.30;1.00;;;;;;5043505;28;20182;-80
2022/10/22 12:21:32;;;;;;;4.35;2.35;;;17.40;1.00;;;;;;5043630;28;20178;-79
2022/10/22 12:23:59;;;;;;;7.38;4.03;;;17.40;1.00;;;;;;5041065;28;20214;-81
2022/10/22 12:26:28;;;;;;;6.85;3.10;;;17.40;1.00;;;;;;5042232;28;20187;-80
2022/10/22 12:29:02;;;;;;;3.97;2.70;;;17.50;1.00;;;;;;5043764;28;20553;-81
2022/10/22 12:31:35;;;;;;;5.30;2.40;;;17.70;1.00;;;;;;5044232;28;20704;-80
2022/10/22 12:34:00;;;;;;;4.10;2.60;;;17.70;1.00;;;;;;5041712;28;20627;-81
2022/10/22 12:36:28;;;;;;;4.90;2.80;;;17.80;1.00;;;;;;5041645;28;20202;-82
2022/10/22 12:38:54;;;;;;;7.97;3.75;;;18.00;1.00;;;;;;5042778;28;20182;-83
2022/10/22 12:41:31;;;;;;;11.85;3.83;;;18.10;1.00;;;;;;5048825;28;20653;-82
2022/10/22 12:44:01;;;;;;;7.38;3.42;;;18.20;1.00;;;;;;5045351;28;20271;-81
2022/10/22 12:46:29;;;;;;;7.13;3.38;;;18.20;1.00;;;;;;5051228;28;20271;-81
2022/10/22 12:48:59;;;;;;;7.95;4.18;;;18.20;1.00;;;;;;5043374;28;20359;-81
2022/10/22 12:51:24;;;;;;;6.70;2.78;;;18.30;1.00;;;;;;5042462;28;20387;-82
2022/10/22 12:53:53;;;;;;;8.55;4.05;;;18.20;1.00;;;;;;5043456;28;20268;-81
2022/10/22 12:56:28;;;;;;;7.00;3.08;;;18.30;1.00;;;;;;5041749;28;20198;-81
2022/10/22 12:59:03;;;;;;;8.07;3.17;;;18.30;1.00;;;;;;5043728;28;20665;-81
2022/10/22 13:01:40;;;;;;;5.63;3.40;;;18.40;1.00;;;;;;5042459;28;20193;-81
2022/10/22 13:04:30;;;;;;;3.25;2.45;;;18.40;1.00;;;;;;5052024;28;20244;-81
2022/10/22 13:07:11;;;;;;;16.23;6.88;;;18.20;1.00;;;;;;5060583;28;20186;-81